sensor_id;sensor_type;location;lat;lon;timestamp;pressure;altitude;pressure_sealevel;temperature;humidity
19005;BME280;9635;52.078;8.648;2022-08-19T00:00:15;100168.00;;;19.29;69.15
19005;BME280;9635;52.078;8.648;2022-08-19T00:05:21;100175.41;;;19.20;69.28
19005;BME280;9635;52.078;8.648;2022-08-19T00:10:24;100168.72;;;19.08;69.51
19005;BME280;9635;52.078;8.648;2022-08-19T00:15:27;100175.75;;;19.02;69.96
19005;BME280;9635;52.078;8.648;2022-08-19T00:20:32;100174.88;;;18.87;70.11
19005;BME280;9635;52.078;8.648;2022-08-19T00:25:35;100171.91;;;18.74;70.63
19005;BME280;9635;52.078;8.648;2022-08-19T00:30:38;100174.50;;;18.67;70.80
19005;BME280;9635;52.078;8.648;2022-08-19T00:35:42;100166.28;;;18.52;71.20
19005;BME280;9635;52.078;8.648;2022-08-19T00:40:45;100159.34;;;18.50;71.30
19005;BME280;9635;52.078;8.648;2022-08-19T00:45:48;100166.47;;;18.51;71.28
19005;BME280;9635;52.078;8.648;2022-08-19T00:50:53;100172.47;;;18.46;71.95
19005;BME280;9635;52.078;8.648;2022-08-19T00:55:59;100172.09;;;18.49;71.63
19005;BME280;9635;52.078;8.648;2022-08-19T01:01:04;100170.22;;;18.50;71.71
19005;BME280;9635;52.078;8.648;2022-08-19T01:06:08;100164.09;;;18.48;71.47
19005;BME280;9635;52.078;8.648;2022-08-19T01:11:12;100164.94;;;18.48;71.61
19005;BME280;9635;52.078;8.648;2022-08-19T01:16:15;100153.97;;;18.42;71.78
19005;BME280;9635;52.078;8.648;2022-08-19T01:21:24;100146.69;;;18.34;71.92
19005;BME280;9635;52.078;8.648;2022-08-19T01:26:31;100133.16;;;18.26;72.35
19005;BME280;9635;52.078;8.648;2022-08-19T01:31:42;100134.00;;;18.26;72.45
19005;BME280;9635;52.078;8.648;2022-08-19T01:36:47;100132.22;;;18.19;72.55
19005;BME280;9635;52.078;8.648;2022-08-19T01:41:52;100117.03;;;18.01;72.99
19005;BME280;9635;52.078;8.648;2022-08-19T01:46:56;100103.91;;;17.74;73.50
19005;BME280;9635;52.078;8.648;2022-08-19T01:51:59;100092.03;;;17.35;75.11
19005;BME280;9635;52.078;8.648;2022-08-19T01:57:07;100089.06;;;16.97;76.96
19005;BME280;9635;52.078;8.648;2022-08-19T02:02:10;100086.94;;;16.60;78.51
19005;BME280;9635;52.078;8.648;2022-08-19T02:07:13;100080.34;;;16.54;79.06
19005;BME280;9635;52.078;8.648;2022-08-19T02:12:18;100090.25;;;16.95;78.08
19005;BME280;9635;52.078;8.648;2022-08-19T02:17:22;100090.91;;;17.13;77.16
19005;BME280;9635;52.078;8.648;2022-08-19T02:22:25;100098.31;;;17.28;76.31
19005;BME280;9635;52.078;8.648;2022-08-19T02:27:29;100096.97;;;17.32;76.03
19005;BME280;9635;52.078;8.648;2022-08-19T02:32:32;100092.34;;;17.40;75.57
19005;BME280;9635;52.078;8.648;2022-08-19T02:37:45;100108.13;;;17.45;75.37
19005;BME280;9635;52.078;8.648;2022-08-19T02:43:08;100102.50;;;17.46;75.16
19005;BME280;9635;52.078;8.648;2022-08-19T02:48:11;100096.72;;;17.50;74.94
19005;BME280;9635;52.078;8.648;2022-08-19T02:53:23;100091.28;;;17.50;74.76
19005;BME280;9635;52.078;8.648;2022-08-19T02:58:28;100089.63;;;17.40;74.62
19005;BME280;9635;52.078;8.648;2022-08-19T03:03:31;100095.09;;;17.32;74.85
19005;BME280;9635;52.078;8.648;2022-08-19T03:08:36;100102.59;;;17.22;75.10
19005;BME280;9635;52.078;8.648;2022-08-19T03:13:40;100118.09;;;16.72;77.26
19005;BME280;9635;52.078;8.648;2022-08-19T03:18:45;100121.94;;;16.12;80.46
19005;BME280;9635;52.078;8.648;2022-08-19T03:23:48;100111.34;;;16.44;79.02
19005;BME280;9635;52.078;8.648;2022-08-19T03:28:52;100120.81;;;16.64;78.73
19005;BME280;9635;52.078;8.648;2022-08-19T03:33:59;100117.44;;;16.78;77.76
19005;BME280;9635;52.078;8.648;2022-08-19T03:39:04;100118.97;;;16.48;78.36
19005;BME280;9635;52.078;8.648;2022-08-19T03:44:08;100123.66;;;16.13;79.58
19005;BME280;9635;52.078;8.648;2022-08-19T03:49:19;100117.09;;;16.32;79.30
19005;BME280;9635;52.078;8.648;2022-08-19T03:54:29;100118.75;;;16.25;78.51
19005;BME280;9635;52.078;8.648;2022-08-19T03:59:35;100118.38;;;16.20;80.10
19005;BME280;9635;52.078;8.648;2022-08-19T04:04:41;100136.53;;;16.20;80.15
19005;BME280;9635;52.078;8.648;2022-08-19T04:09:45;100135.00;;;16.25;79.62
19005;BME280;9635;52.078;8.648;2022-08-19T04:14:51;100132.00;;;16.36;79.91
19005;BME280;9635;52.078;8.648;2022-08-19T04:19:54;100138.78;;;16.41;78.95
19005;BME280;9635;52.078;8.648;2022-08-19T04:24:57;100139.63;;;16.41;78.76
19005;BME280;9635;52.078;8.648;2022-08-19T04:30:03;100129.78;;;16.73;77.60
19005;BME280;9635;52.078;8.648;2022-08-19T04:35:07;100128.09;;;16.80;77.04
19005;BME280;9635;52.078;8.648;2022-08-19T04:40:20;100130.94;;;16.95;76.17
19005;BME280;9635;52.078;8.648;2022-08-19T04:45:41;100137.59;;;16.76;76.27
19005;BME280;9635;52.078;8.648;2022-08-19T04:50:45;100146.94;;;16.49;78.01
19005;BME280;9635;52.078;8.648;2022-08-19T04:55:48;100148.47;;;16.59;78.02
19005;BME280;9635;52.078;8.648;2022-08-19T05:00:53;100150.13;;;17.01;77.04
19005;BME280;9635;52.078;8.648;2022-08-19T05:05:56;100146.88;;;17.31;76.37
19005;BME280;9635;52.078;8.648;2022-08-19T05:10:59;100141.53;;;17.54;74.85
19005;BME280;9635;52.078;8.648;2022-08-19T05:16:04;100140.41;;;17.71;74.46
19005;BME280;9635;52.078;8.648;2022-08-19T05:21:08;100137.00;;;17.77;73.33
19005;BME280;9635;52.078;8.648;2022-08-19T05:26:28;100149.88;;;17.83;73.26
19005;BME280;9635;52.078;8.648;2022-08-19T05:31:33;100141.72;;;17.44;73.95
19005;BME280;9635;52.078;8.648;2022-08-19T05:36:43;100141.44;;;17.31;75.37
19005;BME280;9635;52.078;8.648;2022-08-19T05:41:49;100143.75;;;17.50;75.05
19005;BME280;9635;52.078;8.648;2022-08-19T05:46:53;100148.31;;;17.50;74.81
19005;BME280;9635;52.078;8.648;2022-08-19T05:51:56;100138.09;;;17.60;75.49
19005;BME280;9635;52.078;8.648;2022-08-19T05:57:01;100146.16;;;17.76;74.66
19005;BME280;9635;52.078;8.648;2022-08-19T06:02:06;100141.00;;;17.98;73.46
19005;BME280;9635;52.078;8.648;2022-08-19T06:07:09;100131.50;;;18.25;72.69
19005;BME280;9635;52.078;8.648;2022-08-19T06:12:13;100126.63;;;18.12;73.31
19005;BME280;9635;52.078;8.648;2022-08-19T06:17:21;100131.00;;;18.21;73.08
19005;BME280;9635;52.078;8.648;2022-08-19T06:22:24;100136.13;;;18.16;73.05
19005;BME280;9635;52.078;8.648;2022-08-19T06:27:26;100144.16;;;18.55;71.63
19005;BME280;9635;52.078;8.648;2022-08-19T06:32:32;100135.50;;;18.98;70.47
19005;BME280;9635;52.078;8.648;2022-08-19T06:37:36;100133.34;;;19.08;69.69
19005;BME280;9635;52.078;8.648;2022-08-19T06:42:44;100134.91;;;19.02;68.69
19005;BME280;9635;52.078;8.648;2022-08-19T06:47:57;100140.25;;;18.35;71.26
19005;BME280;9635;52.078;8.648;2022-08-19T06:53:00;100149.13;;;19.28;68.46
19005;BME280;9635;52.078;8.648;2022-08-19T06:58:05;100145.19;;;19.45;67.37
19005;BME280;9635;52.078;8.648;2022-08-19T07:03:09;100156.28;;;19.29;68.25
19005;BME280;9635;52.078;8.648;2022-08-19T07:08:14;100157.22;;;19.80;66.08
19005;BME280;9635;52.078;8.648;2022-08-19T07:13:19;100157.09;;;20.89;63.65
19005;BME280;9635;52.078;8.648;2022-08-19T07:18:24;100172.38;;;20.19;65.09
19005;BME280;9635;52.078;8.648;2022-08-19T07:23:27;100170.97;;;20.88;63.32
19005;BME280;9635;52.078;8.648;2022-08-19T07:28:30;100165.09;;;21.12;62.38
19005;BME280;9635;52.078;8.648;2022-08-19T07:33:36;100162.09;;;21.70;60.47
19005;BME280;9635;52.078;8.648;2022-08-19T07:38:40;100186.69;;;21.35;61.69
19005;BME280;9635;52.078;8.648;2022-08-19T07:43:46;100196.97;;;22.09;59.20
19005;BME280;9635;52.078;8.648;2022-08-19T07:48:51;100195.84;;;22.45;58.45
19005;BME280;9635;52.078;8.648;2022-08-19T07:53:54;100199.72;;;22.77;57.69
19005;BME280;9635;52.078;8.648;2022-08-19T07:58:57;100207.72;;;22.79;57.22
19005;BME280;9635;52.078;8.648;2022-08-19T08:04:01;100211.97;;;23.21;55.69
19005;BME280;9635;52.078;8.648;2022-08-19T08:16:08;100222.03;;;23.61;54.64
19005;BME280;9635;52.078;8.648;2022-08-19T08:21:16;100218.56;;;24.50;53.36
19005;BME280;9635;52.078;8.648;2022-08-19T08:26:19;100220.56;;;24.30;53.22
19005;BME280;9635;52.078;8.648;2022-08-19T08:31:22;100223.47;;;24.73;52.06
19005;BME280;9635;52.078;8.648;2022-08-19T08:36:26;100227.13;;;23.51;54.44
19005;BME280;9635;52.078;8.648;2022-08-19T08:41:40;100211.44;;;24.43;52.93
19005;BME280;9635;52.078;8.648;2022-08-19T08:46:48;100219.75;;;24.23;52.15
19005;BME280;9635;52.078;8.648;2022-08-19T08:52:00;100226.97;;;25.19;51.69
19005;BME280;9635;52.078;8.648;2022-08-19T08:57:10;100223.72;;;25.91;47.26
19005;BME280;9635;52.078;8.648;2022-08-19T09:02:15;100217.78;;;25.94;47.49
19005;BME280;9635;52.078;8.648;2022-08-19T09:07:38;100214.56;;;25.78;47.86
19005;BME280;9635;52.078;8.648;2022-08-19T09:12:55;100196.44;;;26.68;45.44
19005;BME280;9635;52.078;8.648;2022-08-19T09:18:00;100209.06;;;26.76;45.24
19005;BME280;9635;52.078;8.648;2022-08-19T09:23:09;100212.81;;;26.93;45.88
19005;BME280;9635;52.078;8.648;2022-08-19T09:28:12;100210.16;;;26.74;44.45
19005;BME280;9635;52.078;8.648;2022-08-19T09:33:23;100206.63;;;26.98;44.70
19005;BME280;9635;52.078;8.648;2022-08-19T09:38:27;100202.78;;;27.81;42.97
19005;BME280;9635;52.078;8.648;2022-08-19T09:43:30;100202.91;;;26.62;44.90
19005;BME280;9635;52.078;8.648;2022-08-19T09:48:45;100211.16;;;28.10;41.70
19005;BME280;9635;52.078;8.648;2022-08-19T09:53:51;100206.84;;;28.42;41.59
19005;BME280;9635;52.078;8.648;2022-08-19T09:58:58;100214.66;;;29.42;39.43
19005;BME280;9635;52.078;8.648;2022-08-19T10:04:01;100210.59;;;28.65;38.75
19005;BME280;9635;52.078;8.648;2022-08-19T10:09:21;100202.31;;;28.65;39.22
19005;BME280;9635;52.078;8.648;2022-08-19T10:14:35;100198.94;;;29.64;37.10
19005;BME280;9635;52.078;8.648;2022-08-19T10:19:39;100210.88;;;28.80;38.15
19005;BME280;9635;52.078;8.648;2022-08-19T10:24:57;100210.50;;;30.00;36.63
19005;BME280;9635;52.078;8.648;2022-08-19T10:30:00;100190.09;;;30.55;35.35
19005;BME280;9635;52.078;8.648;2022-08-19T10:35:05;100196.91;;;30.42;35.40
19005;BME280;9635;52.078;8.648;2022-08-19T10:40:11;100184.41;;;28.84;36.90
19005;BME280;9635;52.078;8.648;2022-08-19T10:45:15;100170.84;;;28.09;38.76
19005;BME280;9635;52.078;8.648;2022-08-19T10:50:18;100172.97;;;27.43;39.83
19005;BME280;9635;52.078;8.648;2022-08-19T10:55:39;100163.63;;;28.08;39.91
19005;BME280;9635;52.078;8.648;2022-08-19T11:01:00;100155.97;;;29.78;36.82
19005;BME280;9635;52.078;8.648;2022-08-19T11:06:05;100162.66;;;29.82;36.84
19005;BME280;9635;52.078;8.648;2022-08-19T11:11:10;100160.38;;;28.11;39.47
19005;BME280;9635;52.078;8.648;2022-08-19T11:16:15;100152.16;;;27.87;40.66
19005;BME280;9635;52.078;8.648;2022-08-19T11:21:21;100147.25;;;28.18;38.72
19005;BME280;9635;52.078;8.648;2022-08-19T11:26:27;100145.47;;;30.02;37.08
19005;BME280;9635;52.078;8.648;2022-08-19T11:31:33;100136.00;;;30.75;34.69
19005;BME280;9635;52.078;8.648;2022-08-19T11:36:39;100134.41;;;29.80;36.01
19005;BME280;9635;52.078;8.648;2022-08-19T11:41:43;100133.38;;;31.38;32.99
19005;BME280;9635;52.078;8.648;2022-08-19T11:46:47;100130.13;;;31.51;33.84
19005;BME280;9635;52.078;8.648;2022-08-19T11:51:50;100119.03;;;32.24;31.71
19005;BME280;9635;52.078;8.648;2022-08-19T11:56:55;100121.81;;;33.37;30.28
19005;BME280;9635;52.078;8.648;2022-08-19T12:01:58;100135.25;;;30.30;33.87
19005;BME280;9635;52.078;8.648;2022-08-19T12:07:01;100120.00;;;30.28;34.44
19005;BME280;9635;52.078;8.648;2022-08-19T12:12:06;100122.16;;;32.69;31.02
19005;BME280;9635;52.078;8.648;2022-08-19T12:17:10;100126.00;;;30.46;34.50
19005;BME280;9635;52.078;8.648;2022-08-19T12:22:14;100119.03;;;31.51;33.07
19005;BME280;9635;52.078;8.648;2022-08-19T12:27:18;100120.34;;;31.96;31.46
19005;BME280;9635;52.078;8.648;2022-08-19T12:32:41;100102.44;;;32.80;30.45
19005;BME280;9635;52.078;8.648;2022-08-19T12:37:44;100106.91;;;29.96;34.74
19005;BME280;9635;52.078;8.648;2022-08-19T12:42:59;100093.56;;;30.15;34.72
19005;BME280;9635;52.078;8.648;2022-08-19T12:48:02;100085.63;;;32.09;31.45
19005;BME280;9635;52.078;8.648;2022-08-19T12:53:25;100085.19;;;32.88;30.25
19005;BME280;9635;52.078;8.648;2022-08-19T12:58:31;100087.34;;;33.07;30.56
19005;BME280;9635;52.078;8.648;2022-08-19T13:03:36;100073.47;;;32.30;31.17
19005;BME280;9635;52.078;8.648;2022-08-19T13:08:41;100079.53;;;32.01;31.33
19005;BME280;9635;52.078;8.648;2022-08-19T13:13:51;100067.72;;;33.63;30.49
19005;BME280;9635;52.078;8.648;2022-08-19T13:18:57;100056.03;;;34.06;29.47
19005;BME280;9635;52.078;8.648;2022-08-19T13:24:00;100062.09;;;32.57;30.59
19005;BME280;9635;52.078;8.648;2022-08-19T13:29:04;100061.03;;;30.64;33.03
19005;BME280;9635;52.078;8.648;2022-08-19T13:34:30;100059.66;;;29.58;34.66
19005;BME280;9635;52.078;8.648;2022-08-19T13:39:35;100053.16;;;32.04;31.99
19005;BME280;9635;52.078;8.648;2022-08-19T13:44:39;100059.53;;;33.12;29.93
19005;BME280;9635;52.078;8.648;2022-08-19T13:49:42;100042.94;;;33.57;29.01
19005;BME280;9635;52.078;8.648;2022-08-19T13:54:48;100042.34;;;32.74;30.33
19005;BME280;9635;52.078;8.648;2022-08-19T13:59:53;100043.72;;;30.84;31.86
19005;BME280;9635;52.078;8.648;2022-08-19T14:04:56;100045.63;;;33.17;29.86
19005;BME280;9635;52.078;8.648;2022-08-19T14:09:59;100041.41;;;34.29;28.28
19005;BME280;9635;52.078;8.648;2022-08-19T14:15:04;100045.31;;;33.24;29.84
19005;BME280;9635;52.078;8.648;2022-08-19T14:20:10;100036.84;;;34.09;29.08
19005;BME280;9635;52.078;8.648;2022-08-19T14:25:22;100036.75;;;33.75;28.72
19005;BME280;9635;52.078;8.648;2022-08-19T14:30:29;100042.94;;;34.11;29.40
19005;BME280;9635;52.078;8.648;2022-08-19T14:35:33;100046.75;;;33.01;28.93
19005;BME280;9635;52.078;8.648;2022-08-19T14:47:00;100046.25;;;30.86;30.77
19005;BME280;9635;52.078;8.648;2022-08-19T14:52:03;100054.66;;;31.59;30.16
19005;BME280;9635;52.078;8.648;2022-08-19T14:57:06;100050.78;;;30.33;31.46
19005;BME280;9635;52.078;8.648;2022-08-19T15:02:11;100050.03;;;29.00;33.37
19005;BME280;9635;52.078;8.648;2022-08-19T15:07:35;100043.97;;;29.42;33.06
19005;BME280;9635;52.078;8.648;2022-08-19T15:12:39;100049.97;;;29.34;33.21
19005;BME280;9635;52.078;8.648;2022-08-19T15:17:44;100054.03;;;29.97;32.60
19005;BME280;9635;52.078;8.648;2022-08-19T15:22:50;100050.22;;;29.54;32.40
19005;BME280;9635;52.078;8.648;2022-08-19T15:27:53;100052.47;;;30.34;32.00
19005;BME280;9635;52.078;8.648;2022-08-19T15:32:58;100059.09;;;30.06;33.75
19005;BME280;9635;52.078;8.648;2022-08-19T15:38:01;100063.38;;;29.91;34.00
19005;BME280;9635;52.078;8.648;2022-08-19T15:43:04;100071.66;;;29.64;33.46
19005;BME280;9635;52.078;8.648;2022-08-19T15:48:08;100071.47;;;29.49;33.77
19005;BME280;9635;52.078;8.648;2022-08-19T15:53:11;100072.31;;;29.71;34.22
19005;BME280;9635;52.078;8.648;2022-08-19T15:58:14;100052.88;;;30.85;32.70
19005;BME280;9635;52.078;8.648;2022-08-19T16:03:36;100067.31;;;31.34;32.16
19005;BME280;9635;52.078;8.648;2022-08-19T16:08:59;100068.34;;;31.18;32.17
19005;BME280;9635;52.078;8.648;2022-08-19T16:14:03;100073.38;;;30.14;32.56
19005;BME280;9635;52.078;8.648;2022-08-19T16:19:12;100069.84;;;30.24;32.61
19005;BME280;9635;52.078;8.648;2022-08-19T16:24:19;100072.81;;;30.82;32.38
19005;BME280;9635;52.078;8.648;2022-08-19T16:29:23;100069.94;;;31.09;31.97
19005;BME280;9635;52.078;8.648;2022-08-19T16:34:41;100060.84;;;29.85;32.91
19005;BME280;9635;52.078;8.648;2022-08-19T16:39:44;100059.34;;;29.33;34.18
19005;BME280;9635;52.078;8.648;2022-08-19T16:44:54;100066.13;;;29.64;34.34
19005;BME280;9635;52.078;8.648;2022-08-19T16:50:15;100056.66;;;29.38;33.48
19005;BME280;9635;52.078;8.648;2022-08-19T16:55:34;100074.09;;;29.38;34.05
19005;BME280;9635;52.078;8.648;2022-08-19T17:00:38;100077.59;;;28.95;34.43
19005;BME280;9635;52.078;8.648;2022-08-19T17:05:44;100068.16;;;27.83;36.11
19005;BME280;9635;52.078;8.648;2022-08-19T17:10:47;100073.81;;;27.36;37.48
19005;BME280;9635;52.078;8.648;2022-08-19T17:16:10;100070.41;;;26.28;39.11
19005;BME280;9635;52.078;8.648;2022-08-19T17:21:15;100075.38;;;26.61;39.44
19005;BME280;9635;52.078;8.648;2022-08-19T17:26:18;100072.75;;;26.66;39.10
19005;BME280;9635;52.078;8.648;2022-08-19T17:31:24;100063.91;;;26.22;39.95
19005;BME280;9635;52.078;8.648;2022-08-19T17:36:30;100071.00;;;26.30;40.16
19005;BME280;9635;52.078;8.648;2022-08-19T17:41:33;100063.50;;;26.07;40.50
19005;BME280;9635;52.078;8.648;2022-08-19T17:46:36;100058.41;;;25.62;40.97
19005;BME280;9635;52.078;8.648;2022-08-19T17:51:43;100060.47;;;25.67;41.07
19005;BME280;9635;52.078;8.648;2022-08-19T17:56:46;100054.72;;;25.50;41.55
19005;BME280;9635;52.078;8.648;2022-08-19T18:01:49;100047.66;;;25.05;42.72
19005;BME280;9635;52.078;8.648;2022-08-19T18:06:57;100043.50;;;25.14;42.90
19005;BME280;9635;52.078;8.648;2022-08-19T18:12:05;100048.97;;;25.21;42.78
19005;BME280;9635;52.078;8.648;2022-08-19T18:17:10;100041.19;;;25.18;43.07
19005;BME280;9635;52.078;8.648;2022-08-19T18:22:24;100050.19;;;25.07;43.43
19005;BME280;9635;52.078;8.648;2022-08-19T18:27:27;100063.09;;;25.00;43.78
19005;BME280;9635;52.078;8.648;2022-08-19T18:32:31;100069.53;;;24.68;44.01
19005;BME280;9635;52.078;8.648;2022-08-19T18:37:35;100069.25;;;24.51;44.87
19005;BME280;9635;52.078;8.648;2022-08-19T18:42:43;100082.19;;;24.44;45.32
19005;BME280;9635;52.078;8.648;2022-08-19T18:48:04;100076.72;;;24.38;45.42
19005;BME280;9635;52.078;8.648;2022-08-19T18:53:32;100089.25;;;24.27;46.06
19005;BME280;9635;52.078;8.648;2022-08-19T18:58:36;100085.28;;;24.23;46.65
19005;BME280;9635;52.078;8.648;2022-08-19T19:03:41;100092.38;;;24.05;47.17
19005;BME280;9635;52.078;8.648;2022-08-19T19:08:48;100102.34;;;23.93;47.08
19005;BME280;9635;52.078;8.648;2022-08-19T19:13:52;100104.69;;;23.83;47.18
19005;BME280;9635;52.078;8.648;2022-08-19T19:18:55;100107.50;;;23.70;47.84
19005;BME280;9635;52.078;8.648;2022-08-19T19:24:00;100126.75;;;23.50;48.02
19005;BME280;9635;52.078;8.648;2022-08-19T19:29:03;100127.78;;;23.55;48.20
19005;BME280;9635;52.078;8.648;2022-08-19T19:34:06;100127.16;;;23.53;48.29
19005;BME280;9635;52.078;8.648;2022-08-19T19:39:31;100140.25;;;23.51;48.44
19005;BME280;9635;52.078;8.648;2022-08-19T19:44:48;100138.78;;;23.49;48.55
19005;BME280;9635;52.078;8.648;2022-08-19T19:49:52;100147.16;;;23.60;48.54
19005;BME280;9635;52.078;8.648;2022-08-19T19:55:18;100145.94;;;23.50;48.92
19005;BME280;9635;52.078;8.648;2022-08-19T20:00:21;100153.34;;;23.36;49.14
19005;BME280;9635;52.078;8.648;2022-08-19T20:05:25;100156.31;;;23.34;48.69
19005;BME280;9635;52.078;8.648;2022-08-19T20:10:29;100163.69;;;23.07;49.43
19005;BME280;9635;52.078;8.648;2022-08-19T20:15:33;100171.28;;;23.12;49.56
19005;BME280;9635;52.078;8.648;2022-08-19T20:20:43;100155.69;;;22.99;49.46
19005;BME280;9635;52.078;8.648;2022-08-19T20:25:49;100164.34;;;22.96;49.76
19005;BME280;9635;52.078;8.648;2022-08-19T20:30:52;100164.53;;;22.81;50.29
19005;BME280;9635;52.078;8.648;2022-08-19T20:35:55;100161.78;;;22.61;51.17
19005;BME280;9635;52.078;8.648;2022-08-19T20:40:59;100167.03;;;22.56;51.36
19005;BME280;9635;52.078;8.648;2022-08-19T20:46:03;100170.50;;;22.17;52.44
19005;BME280;9635;52.078;8.648;2022-08-19T20:51:05;100183.34;;;22.29;52.50
19005;BME280;9635;52.078;8.648;2022-08-19T20:56:10;100184.25;;;22.43;51.88
19005;BME280;9635;52.078;8.648;2022-08-19T21:01:14;100191.75;;;22.08;52.81
19005;BME280;9635;52.078;8.648;2022-08-19T21:06:18;100180.16;;;22.13;53.51
19005;BME280;9635;52.078;8.648;2022-08-19T21:11:25;100195.28;;;21.67;54.95
19005;BME280;9635;52.078;8.648;2022-08-19T21:16:28;100208.97;;;21.67;55.76
19005;BME280;9635;52.078;8.648;2022-08-19T21:21:33;100204.22;;;21.82;54.19
19005;BME280;9635;52.078;8.648;2022-08-19T21:26:37;100205.88;;;22.25;53.14
19005;BME280;9635;52.078;8.648;2022-08-19T21:31:40;100198.34;;;22.40;53.08
19005;BME280;9635;52.078;8.648;2022-08-19T21:36:43;100202.03;;;22.06;54.45
19005;BME280;9635;52.078;8.648;2022-08-19T21:41:47;100201.59;;;22.02;54.18
19005;BME280;9635;52.078;8.648;2022-08-19T21:46:50;100199.56;;;21.76;54.95
19005;BME280;9635;52.078;8.648;2022-08-19T21:51:53;100195.72;;;21.71;55.98
19005;BME280;9635;52.078;8.648;2022-08-19T21:56:57;100218.19;;;21.31;57.28
19005;BME280;9635;52.078;8.648;2022-08-19T22:02:00;100211.78;;;21.52;57.63
19005;BME280;9635;52.078;8.648;2022-08-19T22:07:20;100218.53;;;21.84;56.77
19005;BME280;9635;52.078;8.648;2022-08-19T22:12:28;100213.31;;;21.96;57.17
19005;BME280;9635;52.078;8.648;2022-08-19T22:17:31;100217.25;;;22.22;56.63
19005;BME280;9635;52.078;8.648;2022-08-19T22:22:35;100205.06;;;22.24;56.46
19005;BME280;9635;52.078;8.648;2022-08-19T22:27:39;100207.91;;;22.03;57.43
19005;BME280;9635;52.078;8.648;2022-08-19T22:32:44;100208.31;;;21.65;58.37
19005;BME280;9635;52.078;8.648;2022-08-19T22:37:47;100204.56;;;21.73;58.92
19005;BME280;9635;52.078;8.648;2022-08-19T22:42:57;100215.81;;;21.84;58.93
19005;BME280;9635;52.078;8.648;2022-08-19T22:48:01;100211.16;;;21.78;59.33
19005;BME280;9635;52.078;8.648;2022-08-19T22:53:05;100218.94;;;21.81;59.73
19005;BME280;9635;52.078;8.648;2022-08-19T22:58:10;100217.19;;;21.74;59.84
19005;BME280;9635;52.078;8.648;2022-08-19T23:03:15;100223.22;;;21.62;60.29
19005;BME280;9635;52.078;8.648;2022-08-19T23:08:18;100223.56;;;21.53;60.70
19005;BME280;9635;52.078;8.648;2022-08-19T23:13:22;100219.13;;;21.45;60.80
19005;BME280;9635;52.078;8.648;2022-08-19T23:18:25;100216.72;;;21.35;61.54
19005;BME280;9635;52.078;8.648;2022-08-19T23:23:28;100219.44;;;21.29;62.51
19005;BME280;9635;52.078;8.648;2022-08-19T23:28:32;100215.09;;;20.91;63.84
19005;BME280;9635;52.078;8.648;2022-08-19T23:33:52;100215.59;;;21.01;64.10
19005;BME280;9635;52.078;8.648;2022-08-19T23:38:55;100213.06;;;21.21;63.51
19005;BME280;9635;52.078;8.648;2022-08-19T23:44:01;100213.25;;;21.20;64.06
19005;BME280;9635;52.078;8.648;2022-08-19T23:49:04;100199.91;;;21.32;63.73
19005;BME280;9635;52.078;8.648;2022-08-19T23:54:07;100206.38;;;21.31;63.98
19005;BME280;9635;52.078;8.648;2022-08-19T23:59:12;100197.84;;;21.40;64.10
